Mineral Point, Pennsylvania
Current Conditions -  °F | °C
As of 12:11 PM on Thursday 27 Nov 2014 (Local Time) from KJST Reporting Station
Light Snow Light Snow  
Wind Chill: -7°   Ceiling: 1400
Heat Index: -2°   Visibility: 4mi
Dew Point: -4°   Wind: 10mph
Humidity: 85%   Direction: 280°W
Pressure: 29.97"   Gusts: NA
Location:  40.38°N, 78.84°W
Report Text: KJST 271711Z AUTO 28009KT 4SM -SN BR BKN014 OVC020 M02/M04 A2997 RMK AO2 SNB03 P0000 T10221044
Loading
Personal Weather Stations






























Interactive Weather Map New forecast layout! Learn more

10-Day Weather Forecast

Advertisements
Track Severe Weather on mobile